createdAt,value
2019-03-10T00:01:18.449Z,96654.22
2019-03-10T00:03:44.284Z,96650.59
2019-03-10T00:06:10.097Z,96629.98
2019-03-10T00:08:35.894Z,96625.88
2019-03-10T00:11:01.817Z,96629.98
2019-03-10T00:13:28.018Z,96617.34
2019-03-10T00:15:53.822Z,96625.31
2019-03-10T00:18:21.110Z,96637.41
2019-03-10T00:20:46.926Z,96628.84
2019-03-10T00:23:14.994Z,96627.73
2019-03-10T00:25:41.122Z,96617.52
2019-03-10T00:28:09.897Z,96622.03
2019-03-10T00:30:35.829Z,96614.31
2019-03-10T00:33:04.633Z,96613.09
2019-03-10T00:35:30.455Z,96606.13
2019-03-10T00:37:59.956Z,96582.89
2019-03-10T00:40:53.474Z,96578.09
2019-03-10T00:43:52.236Z,96583.83
2019-03-10T00:46:21.846Z,96579.75
2019-03-10T00:49:25.467Z,96577.23
2019-03-10T00:52:16.149Z,96566.47
2019-03-10T00:54:42.264Z,96566.55
2019-03-10T00:57:08.059Z,96558.02
2019-03-10T00:59:33.901Z,96566.10
2019-03-10T01:01:59.982Z,96563.78
2019-03-10T01:04:25.821Z,96561.98
2019-03-10T01:06:52.113Z,96555.20
2019-03-10T01:09:17.908Z,96553.73
2019-03-10T01:11:44.310Z,96556.48
2019-03-10T01:14:10.116Z,96537.94
2019-03-10T01:16:36.421Z,96533.23
2019-03-10T01:19:02.764Z,96532.66
2019-03-10T01:21:28.759Z,96531.66
2019-03-10T01:23:54.577Z,96537.59
2019-03-10T01:26:20.378Z,96529.34
2019-03-10T01:28:46.494Z,96525.72
2019-03-10T01:31:22.107Z,96515.77
2019-03-10T01:34:20.997Z,96508.91
2019-03-10T01:36:46.797Z,96513.73
2019-03-10T01:39:12.626Z,96508.25
2019-03-10T01:41:41.436Z,96504.92
2019-03-10T01:44:07.256Z,96498.69
2019-03-10T01:46:36.095Z,96485.44
2019-03-10T01:49:01.918Z,96502.58
2019-03-10T01:51:30.796Z,96479.31
2019-03-10T01:53:56.651Z,96471.52
2019-03-10T01:56:25.453Z,96456.28
2019-03-10T01:58:51.299Z,96459.34
2019-03-10T02:01:17.106Z,96448.20
2019-03-10T02:03:42.934Z,96431.23
2019-03-10T02:06:08.988Z,96421.56
2019-03-10T02:08:37.681Z,96417.95
2019-03-10T02:11:03.961Z,96431.96
2019-03-10T02:13:33.079Z,96413.03
2019-03-10T02:15:58.968Z,96425.02
2019-03-10T02:18:27.939Z,96399.11
2019-03-10T02:20:53.803Z,96390.95
2019-03-10T02:23:20.906Z,96381.01
2019-03-10T02:25:46.738Z,96375.64
2019-03-10T02:28:17.427Z,96362.36
2019-03-10T02:30:43.276Z,96357.05
2019-03-10T02:33:10.656Z,96354.37
2019-03-10T02:35:36.490Z,96350.47
2019-03-10T02:38:02.570Z,96338.05
2019-03-10T02:40:28.651Z,96338.05
2019-03-10T02:42:54.471Z,96333.78
2019-03-10T02:45:23.272Z,96327.82
2019-03-10T02:47:49.087Z,96344.71
2019-03-10T02:50:18.411Z,96322.74
2019-03-10T02:52:44.582Z,96325.50
2019-03-10T02:55:11.718Z,96292.73
2019-03-10T02:57:37.525Z,96292.73
2019-03-10T03:00:09.057Z,96282.92
2019-03-10T03:02:34.905Z,96276.44
2019-03-10T03:05:00.775Z,96275.50
2019-03-10T03:07:26.898Z,96250.03
2019-03-10T03:09:55.767Z,96260.48
2019-03-10T03:12:21.700Z,96261.70
2019-03-10T03:14:47.791Z,96257.53
2019-03-10T03:17:13.979Z,96263.29
2019-03-10T03:19:39.801Z,96260.87
2019-03-10T03:22:08.384Z,96247.38
2019-03-10T03:24:34.197Z,96270.94
2019-03-10T03:27:02.890Z,96241.21
2019-03-10T03:29:28.701Z,96237.98
2019-03-10T03:31:57.352Z,96231.86
2019-03-10T03:34:23.164Z,96244.27
2019-03-10T03:36:51.645Z,96225.83
2019-03-10T03:39:21.120Z,96213.87
2019-03-10T03:41:47.211Z,96204.63
2019-03-10T03:44:13.039Z,96198.87
2019-03-10T03:46:42.170Z,96192.22
2019-03-10T03:49:08.302Z,96185.17
2019-03-10T03:51:34.104Z,96178.97
2019-03-10T03:54:00.220Z,96181.84
2019-03-10T03:56:26.306Z,96177.19
2019-03-10T03:58:54.896Z,96170.91
2019-03-10T04:01:39.015Z,96180.19
2019-03-10T04:04:05.123Z,96153.48
2019-03-10T04:06:30.945Z,96142.74
2019-03-10T04:08:57.035Z,96131.72
2019-03-10T04:11:23.122Z,96135.25
2019-03-10T04:13:49.184Z,96129.14
2019-03-10T04:16:15.023Z,96118.12
2019-03-10T04:18:40.870Z,96114.63
2019-03-10T04:21:06.656Z,96104.06
2019-03-10T04:23:32.466Z,96101.75
2019-03-10T04:25:58.541Z,96095.97
2019-03-10T04:28:24.641Z,96095.16
2019-03-10T04:30:50.445Z,96087.38
2019-03-10T04:33:16.236Z,96080.78
2019-03-10T04:35:42.455Z,96080.53
2019-03-10T04:38:08.520Z,96069.12
2019-03-10T04:40:34.322Z,96060.89
2019-03-10T04:43:00.159Z,96048.67
2019-03-10T04:45:29.557Z,96045.55
2019-03-10T04:47:55.387Z,96055.14
2019-03-10T04:50:24.265Z,96035.34
2019-03-10T04:52:50.116Z,96035.63
2019-03-10T04:55:35.826Z,96043.11
2019-03-10T04:58:10.110Z,96040.27
2019-03-10T05:00:38.236Z,96024.25
2019-03-10T05:03:04.054Z,96009.16
2019-03-10T05:05:29.872Z,96001.30
2019-03-10T05:07:55.689Z,95991.31
2019-03-10T05:10:21.762Z,95981.06
2019-03-10T05:12:47.567Z,95962.45
2019-03-10T05:15:13.647Z,95952.66
2019-03-10T05:17:39.744Z,95936.39
2019-03-10T05:20:05.921Z,95940.80
2019-03-10T05:22:33.412Z,95937.20
2019-03-10T05:24:59.565Z,95925.27
2019-03-10T05:27:25.367Z,95912.89
2019-03-10T05:29:51.604Z,95900.51
2019-03-10T05:32:17.403Z,95904.67
2019-03-10T05:34:43.222Z,95893.67
2019-03-10T05:37:09.335Z,95883.31
2019-03-10T05:39:35.420Z,95887.20
2019-03-10T05:42:01.255Z,95895.14
2019-03-10T05:44:27.041Z,95875.55
2019-03-10T05:46:52.847Z,95880.36
2019-03-10T05:49:18.693Z,95868.52
2019-03-10T05:51:44.511Z,95863.19
2019-03-10T05:54:10.573Z,95865.58
2019-03-10T05:56:36.390Z,95865.21
2019-03-10T05:59:02.187Z,95872.77
2019-03-10T06:01:28.034Z,95851.12
2019-03-10T06:03:53.854Z,95869.09
2019-03-10T06:06:19.893Z,95875.00
2019-03-10T06:08:48.537Z,95856.14
2019-03-10T06:11:14.575Z,95872.97
2019-03-10T06:13:43.466Z,95855.86
2019-03-10T06:16:09.323Z,95867.95
2019-03-10T06:18:35.113Z,95843.55
2019-03-10T06:21:01.058Z,95847.44
2019-03-10T06:23:27.159Z,95835.58
2019-03-10T06:25:54.165Z,95830.88
2019-03-10T06:28:19.999Z,95824.28
2019-03-10T06:30:50.513Z,95830.66
2019-03-10T06:33:16.371Z,95813.52
2019-03-10T06:35:45.058Z,95813.70
2019-03-10T06:38:11.135Z,95796.09
2019-03-10T06:40:40.149Z,95800.16
2019-03-10T06:43:06.003Z,95786.82
2019-03-10T06:45:33.385Z,95792.15
2019-03-10T06:47:59.195Z,95791.19
2019-03-10T06:50:28.259Z,95789.55
2019-03-10T06:52:54.072Z,95789.59
2019-03-10T06:55:19.905Z,95789.12
2019-03-10T06:57:46.048Z,95792.47
2019-03-10T07:00:12.834Z,95779.01
2019-03-10T07:02:41.988Z,95779.64
2019-03-10T07:05:10.318Z,95787.13
2019-03-10T07:07:36.140Z,95776.07
2019-03-10T07:10:04.956Z,95778.20
2019-03-10T07:12:31.046Z,95759.79
2019-03-10T07:14:56.853Z,95737.53
2019-03-10T07:17:25.806Z,95757.25
2019-03-10T07:19:51.756Z,95765.81
2019-03-10T07:22:20.774Z,95759.34
2019-03-10T07:24:46.750Z,95755.97
2019-03-10T07:27:15.605Z,95758.33
2019-03-10T07:29:43.328Z,95757.70
2019-03-10T07:32:23.383Z,95773.89
2019-03-10T07:34:51.205Z,95774.54
2019-03-10T07:37:24.693Z,95780.27
2019-03-10T07:39:52.453Z,95768.77
2019-03-10T07:45:11.829Z,95766.54
2019-03-10T07:47:56.201Z,95751.27
2019-03-10T07:50:33.112Z,95751.52
2019-03-10T07:53:00.853Z,95755.28
2019-03-10T07:55:37.728Z,95764.28
2019-03-10T07:58:20.932Z,95767.59
2019-03-10T08:00:48.621Z,95776.25
2019-03-10T08:03:31.823Z,95773.65
2019-03-10T08:06:08.890Z,95770.45
2019-03-10T08:08:36.646Z,95777.55
2019-03-10T08:11:16.689Z,95753.52
2019-03-10T08:13:44.523Z,95760.02
2019-03-10T08:16:28.816Z,95750.80
2019-03-10T08:18:56.799Z,95765.23
2019-03-10T08:21:24.543Z,95772.56
2019-03-10T08:24:09.154Z,95773.38
2019-03-10T08:26:36.858Z,95772.88
2019-03-10T08:29:04.590Z,95775.48
2019-03-10T08:31:32.318Z,95763.52
2019-03-10T08:34:18.282Z,95761.13
2019-03-10T08:37:03.005Z,95758.32
2019-03-10T08:39:39.819Z,95759.41
2019-03-10T08:42:20.722Z,95763.91
2019-03-10T08:44:51.558Z,95763.56
2019-03-10T08:47:22.290Z,95752.66
2019-03-10T08:49:49.973Z,95761.41
2019-03-10T08:52:20.547Z,95758.36
2019-03-10T08:54:51.196Z,95748.16
2019-03-10T08:57:28.313Z,95750.30
2019-03-10T09:00:12.933Z,95757.66
2019-03-10T09:02:57.645Z,95766.41
2019-03-10T09:05:37.824Z,95738.37
2019-03-10T09:08:11.265Z,95740.14
2019-03-10T09:10:38.994Z,95744.74
2019-03-10T09:13:06.935Z,95754.22
2019-03-10T09:15:41.237Z,95756.36
2019-03-10T09:18:18.710Z,95745.94
2019-03-10T09:20:55.855Z,95738.13
2019-03-10T09:23:40.518Z,95741.66
2019-03-10T09:26:14.285Z,95727.35
2019-03-10T09:29:00.336Z,95728.53
2019-03-10T09:31:28.058Z,95729.81
2019-03-10T09:33:58.820Z,95724.47
2019-03-10T09:36:26.555Z,95721.62
2019-03-10T09:38:54.267Z,95729.34
2019-03-10T09:41:34.197Z,95734.91
2019-03-10T09:44:14.480Z,95738.20
2019-03-10T09:46:59.165Z,95719.37
2019-03-10T09:49:30.096Z,95705.41
2019-03-10T09:52:03.616Z,95703.00
2019-03-10T09:54:37.431Z,95721.27
2019-03-10T09:57:11.050Z,95719.83
2019-03-10T09:59:44.977Z,95707.52
2019-03-10T10:02:27.934Z,95704.21
2019-03-10T10:05:01.261Z,95679.91
2019-03-10T10:07:29.103Z,95697.03
2019-03-10T10:09:59.416Z,95702.88
2019-03-10T10:12:27.137Z,95695.72
2019-03-10T10:15:07.448Z,95682.06
2019-03-10T10:17:52.051Z,95680.45
2019-03-10T10:20:37.741Z,95670.84
2019-03-10T10:23:20.560Z,95682.16
2019-03-10T10:25:54.339Z,95691.81
2019-03-10T10:28:34.116Z,95679.31
2019-03-10T10:31:14.146Z,95692.12
2019-03-10T10:33:44.650Z,95678.34
2019-03-10T10:36:27.682Z,95682.82
2019-03-10T10:38:55.404Z,95681.46
2019-03-10T10:41:23.148Z,95674.91
2019-03-10T10:43:50.859Z,95665.39
2019-03-10T10:46:21.468Z,95662.61
2019-03-10T10:48:55.338Z,95691.03
2019-03-10T10:51:40.292Z,95679.73
2019-03-10T10:54:08.032Z,95675.10
2019-03-10T10:56:54.079Z,95673.00
2019-03-10T10:59:34.306Z,95657.55
2019-03-10T11:02:02.022Z,95647.17
2019-03-10T11:04:30.009Z,95652.17
2019-03-10T11:07:07.053Z,95661.70
2019-03-10T11:09:51.723Z,95648.61
2019-03-10T11:12:31.464Z,95662.90
2019-03-10T11:15:08.036Z,95652.38
2019-03-10T11:17:35.768Z,95637.92
2019-03-10T11:20:10.569Z,95641.02
2019-03-10T11:22:47.268Z,95622.14
2019-03-10T11:25:15.037Z,95610.91
2019-03-10T11:27:48.854Z,95615.30
2019-03-10T11:30:16.704Z,95608.70
2019-03-10T11:32:47.722Z,95596.12
2019-03-10T11:35:24.018Z,95607.39
2019-03-10T11:38:08.297Z,95621.38
2019-03-10T11:40:47.610Z,95610.29
2019-03-10T11:43:30.726Z,95603.63
2019-03-10T11:46:33.107Z,95617.18
2019-03-10T11:49:17.420Z,95597.62
2019-03-10T11:51:54.139Z,95606.80
2019-03-10T11:54:24.426Z,95605.17
2019-03-10T11:57:10.713Z,95607.09
2019-03-10T11:59:38.429Z,95618.71
2019-03-10T12:02:18.228Z,95603.36
2019-03-10T12:05:00.983Z,95603.94
2019-03-10T12:07:34.971Z,95619.50
2019-03-10T12:10:01.077Z,95607.56
2019-03-10T12:12:26.887Z,95609.54
2019-03-10T12:14:52.727Z,95586.37
2019-03-10T12:17:18.799Z,95616.84
2019-03-10T12:19:44.616Z,95627.61
2019-03-10T12:22:10.820Z,95600.94
2019-03-10T12:24:36.721Z,95607.72
2019-03-10T12:27:02.725Z,95587.05
2019-03-10T12:29:28.907Z,95589.92
2019-03-10T12:31:54.698Z,95602.15
2019-03-10T12:34:20.846Z,95566.27
2019-03-10T12:36:46.954Z,95609.11
2019-03-10T12:39:13.003Z,95610.34
2019-03-10T12:41:39.093Z,95605.23
2019-03-10T12:44:05.186Z,95593.15
2019-03-10T12:46:31.026Z,95605.63
2019-03-10T12:48:56.864Z,95601.75
2019-03-10T12:51:22.673Z,95602.10
2019-03-10T12:53:48.464Z,95625.57
2019-03-10T12:56:14.289Z,95635.77
2019-03-10T12:58:40.139Z,95625.98
2019-03-10T13:01:06.935Z,95622.82
2019-03-10T13:03:32.991Z,95637.23
2019-03-10T13:05:58.753Z,95668.87
2019-03-10T13:08:24.593Z,95655.13
2019-03-10T13:10:50.457Z,95667.76
2019-03-10T13:13:16.254Z,95671.99
2019-03-10T13:15:42.044Z,95667.64
2019-03-10T13:18:07.866Z,95698.88
2019-03-10T13:20:34.214Z,95672.36
2019-03-10T13:23:00.330Z,95710.10
2019-03-10T13:25:26.116Z,95691.86
2019-03-10T13:27:52.339Z,95689.20
2019-03-10T13:30:18.083Z,95696.46
2019-03-10T13:32:44.556Z,95727.41
2019-03-10T13:35:10.734Z,95688.56
2019-03-10T13:37:36.529Z,95702.41
2019-03-10T13:40:04.755Z,95705.06
2019-03-10T13:42:30.655Z,95710.22
2019-03-10T13:44:56.477Z,95706.47
2019-03-10T13:47:22.395Z,95716.81
2019-03-10T13:49:48.574Z,95711.75
2019-03-10T13:52:14.429Z,95735.69
2019-03-10T13:54:40.516Z,95726.52
2019-03-10T13:57:06.550Z,95726.52
2019-03-10T13:59:32.473Z,95732.55
2019-03-10T14:01:58.299Z,95729.26
2019-03-10T14:04:24.116Z,95734.20
2019-03-10T14:06:49.988Z,95721.90
2019-03-10T14:09:15.807Z,95717.42
2019-03-10T14:11:41.596Z,95743.38
2019-03-10T14:14:07.422Z,95718.20
2019-03-10T14:16:33.334Z,95720.08
2019-03-10T14:18:59.162Z,95728.48
2019-03-10T14:21:24.975Z,95700.88
2019-03-10T14:23:50.804Z,95727.36
2019-03-10T14:26:16.600Z,95747.33
2019-03-10T14:28:42.421Z,95744.69
2019-03-10T14:31:08.258Z,95749.03
2019-03-10T14:33:34.070Z,95745.64
2019-03-10T14:35:59.870Z,95753.08
2019-03-10T14:38:28.432Z,95748.31
2019-03-10T14:40:54.540Z,95767.20
2019-03-10T14:43:23.375Z,95752.80
2019-03-10T14:45:49.164Z,95771.41
2019-03-10T14:48:17.831Z,95747.20
2019-03-10T14:50:45.860Z,95767.49
2019-03-10T14:53:11.356Z,95782.33
2019-03-10T14:55:37.148Z,95778.28
2019-03-10T14:58:03.001Z,95790.69
2019-03-10T15:00:29.313Z,95772.98
2019-03-10T15:02:55.243Z,95773.62
2019-03-10T15:05:24.445Z,95790.30
2019-03-10T15:07:50.300Z,95795.75
2019-03-10T15:10:19.511Z,95801.25
2019-03-10T15:12:45.683Z,95804.30
2019-03-10T15:15:22.478Z,95803.66
2019-03-10T15:17:44.739Z,95814.63
2019-03-10T15:20:12.840Z,95829.89
2019-03-10T15:22:39.123Z,95850.59
2019-03-10T15:25:11.116Z,95835.34
2019-03-10T15:27:37.316Z,95863.41
2019-03-10T15:30:13.056Z,95902.00
2019-03-10T15:32:39.166Z,95881.98
2019-03-10T15:35:07.416Z,95896.58
2019-03-10T15:37:33.527Z,95894.45
2019-03-10T15:39:59.332Z,95919.28
2019-03-10T15:42:25.423Z,95921.97
2019-03-10T15:44:51.491Z,95913.89
2019-03-10T15:47:17.331Z,95909.72
2019-03-10T15:49:43.173Z,95907.11
2019-03-10T15:52:09.011Z,95903.71
2019-03-10T15:54:34.846Z,95920.08
2019-03-10T15:57:00.676Z,95870.83
2019-03-10T15:59:26.759Z,95943.21
2019-03-10T16:01:52.587Z,95930.12
2019-03-10T16:04:19.308Z,95925.53
2019-03-10T16:06:45.555Z,95934.88
2019-03-10T16:09:11.548Z,95951.22
2019-03-10T16:11:37.392Z,95944.31
2019-03-10T16:14:03.205Z,95950.38
2019-03-10T16:16:29.013Z,95954.63
2019-03-10T16:18:55.124Z,95952.63
2019-03-10T16:21:20.974Z,95952.64
2019-03-10T16:23:49.557Z,95962.39
2019-03-10T16:26:15.389Z,95993.56
2019-03-10T16:28:44.760Z,95961.17
2019-03-10T16:31:10.556Z,95983.89
2019-03-10T16:33:39.395Z,95983.22
2019-03-10T16:36:05.590Z,95994.42
2019-03-10T16:38:34.687Z,96022.92
2019-03-10T16:41:00.528Z,96032.22
2019-03-10T16:43:26.632Z,96034.55
2019-03-10T16:45:52.432Z,96032.22
2019-03-10T16:48:18.361Z,96053.03
2019-03-10T16:50:47.621Z,96074.55
2019-03-10T16:53:13.416Z,96036.54
2019-03-10T16:55:42.246Z,96077.06
2019-03-10T16:58:08.349Z,96103.06
2019-03-10T17:00:34.183Z,96100.63
2019-03-10T17:03:00.336Z,96085.66
2019-03-10T17:05:28.488Z,96125.95
2019-03-10T17:07:54.776Z,96123.41
2019-03-10T17:10:25.739Z,96112.11
2019-03-10T17:12:51.679Z,96130.55
2019-03-10T17:15:21.539Z,96112.17
2019-03-10T17:17:47.344Z,96129.75
2019-03-10T17:20:17.044Z,96133.34
2019-03-10T17:22:42.982Z,96139.53
2019-03-10T17:25:10.215Z,96143.70
2019-03-10T17:27:36.138Z,96136.58
2019-03-10T17:30:04.239Z,96160.43
2019-03-10T17:32:30.081Z,96142.04
2019-03-10T17:34:55.980Z,96156.21
2019-03-10T17:37:21.795Z,96143.21
2019-03-10T17:39:47.616Z,96139.89
2019-03-10T17:42:16.494Z,96124.25
2019-03-10T17:44:43.216Z,96131.83
2019-03-10T17:47:09.057Z,96149.20
2019-03-10T17:49:34.894Z,96153.73
2019-03-10T17:52:13.779Z,96151.19
2019-03-10T17:54:31.356Z,96159.56
2019-03-10T17:56:57.186Z,96156.66
2019-03-10T17:59:22.983Z,96157.11
2019-03-10T18:01:49.070Z,96169.75
2019-03-10T18:04:17.616Z,96194.20
2019-03-10T18:06:43.476Z,96220.31
2019-03-10T18:09:10.866Z,96240.87
2019-03-10T18:11:36.687Z,96231.41
2019-03-10T18:14:05.782Z,96216.64
2019-03-10T18:16:33.589Z,96236.56
2019-03-10T18:19:02.344Z,96239.88
2019-03-10T18:21:28.146Z,96241.66
2019-03-10T18:23:57.042Z,96243.52
2019-03-10T18:26:22.869Z,96216.13
2019-03-10T18:28:51.679Z,96254.48
2019-03-10T18:31:17.497Z,96262.64
2019-03-10T18:33:43.288Z,96313.05
2019-03-10T18:36:09.103Z,96356.66
2019-03-10T18:38:35.162Z,96387.13
2019-03-10T18:41:01.251Z,96377.88
2019-03-10T18:43:27.309Z,96390.95
2019-03-10T18:45:56.187Z,96375.73
2019-03-10T18:48:22.087Z,96382.18
2019-03-10T18:50:51.043Z,96382.56
2019-03-10T18:53:16.892Z,96394.03
2019-03-10T18:55:45.459Z,96402.09
2019-03-10T18:58:11.278Z,96420.92
2019-03-10T19:00:42.044Z,96449.22
2019-03-10T19:04:03.989Z,96448.02
2019-03-10T19:06:29.799Z,96433.72
2019-03-10T19:08:55.592Z,96424.86
2019-03-10T19:11:21.699Z,96426.25
2019-03-10T19:13:47.520Z,96440.75
2019-03-10T19:16:13.310Z,96450.11
2019-03-10T19:18:39.140Z,96445.33
2019-03-10T19:21:04.916Z,96445.48
2019-03-10T19:23:30.739Z,96458.50
2019-03-10T19:25:56.831Z,96471.04
2019-03-10T19:28:22.629Z,96462.25
2019-03-10T19:30:48.496Z,96473.34
2019-03-10T19:33:14.354Z,96485.28
2019-03-10T19:35:40.176Z,96491.59
2019-03-10T19:38:06.277Z,96484.48
2019-03-10T19:40:32.086Z,96500.09
2019-03-10T19:42:57.910Z,96497.14
2019-03-10T19:45:23.715Z,96512.14
2019-03-10T19:47:49.605Z,96509.61
2019-03-10T19:50:27.222Z,96514.41
2019-03-10T19:52:53.622Z,96527.38
2019-03-10T19:55:19.534Z,96538.09
2019-03-10T19:57:45.348Z,96533.89
2019-03-10T20:00:19.154Z,96535.88
2019-03-10T20:02:45.052Z,96538.69
2019-03-10T20:05:11.720Z,96540.45
2019-03-10T20:07:37.519Z,96554.56
2019-03-10T20:10:07.158Z,96547.63
2019-03-10T20:12:32.949Z,96545.83
2019-03-10T20:14:58.780Z,96558.22
2019-03-10T20:17:24.652Z,96548.00
2019-03-10T20:19:50.439Z,96565.20
2019-03-10T20:22:16.258Z,96551.76
2019-03-10T20:24:42.108Z,96555.69
2019-03-10T20:27:07.927Z,96563.17
2019-03-10T20:29:33.720Z,96442.74
2019-03-10T20:31:59.553Z,96575.02
2019-03-10T20:34:25.348Z,96576.95
2019-03-10T20:36:52.257Z,96581.59
2019-03-10T20:39:18.174Z,96580.30
2019-03-10T20:41:44.020Z,96589.75
2019-03-10T20:44:09.805Z,96601.77
2019-03-10T20:46:35.959Z,96598.27
2019-03-10T20:49:01.771Z,96604.84
2019-03-10T20:51:27.625Z,96606.73
2019-03-10T20:53:53.440Z,96607.95
2019-03-10T20:56:19.259Z,96619.20
2019-03-10T20:58:45.102Z,96625.88
2019-03-10T21:01:10.899Z,96630.33
2019-03-10T21:03:36.749Z,96615.77
2019-03-10T21:06:02.566Z,96615.98
2019-03-10T21:08:28.404Z,96626.58
2019-03-10T21:10:54.499Z,96639.94
2019-03-10T21:13:20.312Z,96628.89
2019-03-10T21:15:46.121Z,96661.19
2019-03-10T21:18:12.200Z,96641.81
2019-03-10T21:20:38.262Z,96630.63
2019-03-10T21:23:04.071Z,96651.36
2019-03-10T21:25:30.408Z,96664.74
2019-03-10T21:27:56.236Z,96667.86
2019-03-10T21:30:30.496Z,96677.07
2019-03-10T21:32:56.301Z,96670.61
2019-03-10T21:35:22.105Z,96677.48
2019-03-10T21:37:47.918Z,96664.95
2019-03-10T21:40:26.091Z,96683.86
2019-03-10T21:42:52.193Z,96687.30
2019-03-10T21:45:18.029Z,96684.66
2019-03-10T21:47:43.845Z,96688.20
2019-03-10T21:50:17.105Z,96684.33
2019-03-10T21:52:43.217Z,96684.00
2019-03-10T21:55:10.608Z,96682.82
2019-03-10T21:57:36.438Z,96687.31
2019-03-10T22:00:04.931Z,96691.09
2019-03-10T22:02:31.023Z,96688.60
2019-03-10T22:04:56.878Z,96684.11
2019-03-10T22:07:22.675Z,96689.48
2019-03-10T22:09:48.510Z,96686.52
2019-03-10T22:12:14.307Z,96690.77
2019-03-10T22:14:40.141Z,96688.66
2019-03-10T22:17:05.929Z,96684.20
2019-03-10T22:19:32.013Z,96703.05
2019-03-10T22:21:57.840Z,96707.25
2019-03-10T22:24:23.661Z,96706.48
2019-03-10T22:26:49.699Z,96712.48
2019-03-10T22:29:15.781Z,96702.67
2019-03-10T22:31:41.887Z,96717.90
2019-03-10T22:34:07.970Z,96721.86
2019-03-10T22:36:33.758Z,96715.45
2019-03-10T22:38:59.654Z,96713.89
2019-03-10T22:41:25.788Z,96725.84
2019-03-10T22:43:51.834Z,96717.38
2019-03-10T22:46:17.673Z,96722.16
2019-03-10T22:48:43.465Z,96719.20
2019-03-10T22:51:09.257Z,96715.52
2019-03-10T22:53:35.095Z,96734.51
2019-03-10T22:56:00.916Z,96714.04
2019-03-10T22:58:27.039Z,96732.50
2019-03-10T23:00:54.361Z,96727.03
2019-03-10T23:03:20.191Z,96733.48
2019-03-10T23:05:46.118Z,96736.06
2019-03-10T23:08:12.305Z,96759.73
2019-03-10T23:10:38.140Z,96748.12
2019-03-10T23:13:04.450Z,96752.70
2019-03-10T23:15:30.383Z,96741.99
2019-03-10T23:17:58.922Z,96749.22
2019-03-10T23:20:24.971Z,96763.55
2019-03-10T23:22:53.848Z,96755.47
2019-03-10T23:25:19.810Z,96788.83
2019-03-10T23:27:45.917Z,96762.73
2019-03-10T23:30:34.659Z,96766.02
2019-03-10T23:33:00.522Z,96749.81
2019-03-10T23:35:26.347Z,96759.23
2019-03-10T23:37:52.568Z,96770.84
2019-03-10T23:40:18.376Z,96755.21
2019-03-10T23:42:44.275Z,96732.89
2019-03-10T23:45:12.070Z,96775.31
2019-03-10T23:47:37.865Z,96780.18
2019-03-10T23:50:05.923Z,96788.05
2019-03-10T23:52:31.981Z,96785.47
2019-03-10T23:54:57.802Z,96775.48
2019-03-10T23:57:23.591Z,96768.57
2019-03-10T23:59:49.655Z,96773.19
